Estación municipal de Roda de Ter (Osona, Plana de Vic)

Consulta los datos en tiempo real de la estación municipal de Roda de Ter





Hora UTC 11:20
Temperatura 35.8 ºC
Humedad 23.7 %
Pluja 0.0 mm
Velocidad viento 4.2 km/h
Dirección viento SSW

Webcam

Datos diarios 2026-09-05



Hora UTC (invierno +1h; verano +2h)
Temperatura (ºC) Humedad (%) Velocidad viento (km/h) Precipitación (mm)
Hora UTC Aire Humedad Vel. Dir. Vel. Max Dir. Intent. máx 5 min.
00:05 20.2 84.3 0.2 NE 0.2 NE 0.0
00:10 20.1 84.5 1.5 NE 3.5 NE 0.0
00:15 20.2 84.1 0.8 NE 2.1 NE 0.0
00:20 19.9 84.6 1.1 NE 2.1 NE 0.0
00:25 19.7 84.5 0.0 NE 1.1 NE 0.0
00:30 19.5 85.4 0.0 NNE 0.0 NE 0.0
00:35 19.6 85.7 0.7 NE 2.8 NE 0.0
00:40 19.9 84.5 1.6 NE 2.8 NE 0.0
00:45 19.4 85.0 1.1 NE 2.5 NE 0.0
00:50 19.1 86.3 0.0 ENE 1.1 ENE 0.0
00:55 19.3 85.7 0.0 NE 1.1 NE 0.0
01:00 19.1 85.9 2.7 NE 3.9 NE 0.0
01:05 19.1 86.1 1.2 NE 2.8 NE 0.0
01:10 19.3 85.4 3.9 NE 5.6 NE 0.0
01:15 19.3 84.7 3.2 NE 5.3 NE 0.0
01:20 18.9 85.8 3.9 NE 5.3 NE 0.0
01:25 18.9 85.7 1.3 NE 3.2 NE 0.0
01:30 19.0 85.7 0.6 NNE 2.1 NNE 0.0
01:35 18.9 85.6 0.3 NE 1.8 NE 0.0
01:40 18.7 85.9 0.3 NE 2.1 NE 0.0
01:45 18.5 86.8 0.3 NE 1.8 NE 0.0
01:50 18.4 86.9 0.0 NNE 0.0 NE 0.0
01:55 18.5 87.0 0.0 NE 1.1 NE 0.0
02:00 18.5 86.4 0.0 NE 1.1 NE 0.0
02:05 18.5 86.5 2.1 NE 3.5 NE 0.0
02:10 18.5 86.9 1.8 NE 2.8 NE 0.0
02:15 18.4 86.8 0.7 NE 2.5 NE 0.0
02:20 18.2 87.3 0.2 NE 1.4 NE 0.0
02:25 18.2 87.9 2.0 NE 5.3 NE 0.0
02:30 18.5 87.0 2.9 NE 4.6 NE 0.0
02:35 18.3 87.1 2.0 NE 3.9 NE 0.0
02:40 18.2 87.7 2.3 NE 4.2 NNE 0.0
02:45 18.3 87.6 0.8 NNE 3.2 NNE 0.0
02:50 18.5 87.1 2.1 NE 4.6 NE 0.0
02:55 18.3 86.7 0.7 NE 2.8 NE 0.0
03:00 18.1 87.6 1.0 NE 2.8 NE 0.0
03:05 17.9 88.0 1.2 NE 2.5 NE 0.0
03:10 17.7 88.3 0.1 NE 1.4 NE 0.0
03:15 17.8 88.5 0.0 NNE 0.0 NE 0.0
03:20 17.8 88.1 0.3 NE 2.1 NE 0.0
03:25 17.8 88.2 2.5 NE 3.5 NE 0.0
03:30 17.7 88.0 1.5 NE 3.2 NE 0.0
03:35 17.5 88.1 0.3 NE 1.8 NE 0.0
03:40 17.4 88.8 0.0 NNE 0.0 NE 0.0
03:45 17.6 89.0 1.2 NE 2.1 NE 0.0
03:50 17.8 88.2 0.0 NE 1.1 NE 0.0
03:55 18.1 87.5 0.1 NE 1.1 NE 0.0
04:00 17.8 87.4 0.0 NNE 0.0 NE 0.0
04:05 17.6 88.0 0.0 NNE 0.0 NE 0.0
04:10 17.5 88.5 0.0 NNE 0.0 NE 0.0
04:15 17.7 88.4 0.0 NNE 0.0 NE 0.0
04:20 18.1 88.3 0.0 NNE 0.0 NE 0.0
04:25 18.1 88.2 0.0 NNE 0.0 NE 0.0
04:30 17.4 88.6 0.0 NNE 0.0 NE 0.0
04:35 17.1 89.0 0.0 NNE 0.0 NE 0.0
04:40 17.0 89.2 1.3 NE 3.5 NE 0.0
04:45 16.8 89.8 0.7 NE 3.2 NE 0.0
04:50 17.1 89.6 2.0 NE 3.2 NE 0.0
04:55 16.8 89.4 0.3 NE 2.5 NE 0.0
05:00 16.9 90.1 1.5 NE 3.5 NE 0.0
05:05 16.9 89.6 1.5 NE 2.8 NE 0.0
05:10 16.7 89.9 0.0 NNE 0.0 NE 0.0
05:15 16.7 90.4 0.0 NE 1.1 NE 0.0
05:20 16.6 90.4 1.5 NE 2.8 NE 0.0
05:25 16.6 90.7 1.2 NE 3.5 NE 0.0
05:30 16.7 90.0 0.3 NE 2.1 NE 0.0
05:35 16.7 90.5 1.0 NE 2.8 NE 0.0
05:40 16.9 89.8 0.9 NE 2.5 NE 0.0
05:45 16.7 89.7 0.0 NNE 0.0 NE 0.0
05:50 16.7 89.9 0.4 NE 1.8 NE 0.0
05:55 16.9 89.8 2.0 NE 3.9 NE 0.0
06:00 17.0 89.2 0.3 NE 1.8 NE 0.0
06:05 16.9 89.5 0.0 NNE 0.0 NE 0.0
06:10 17.0 89.8 0.6 NE 1.8 NE 0.0
06:15 17.6 88.5 0.5 NE 2.1 NE 0.0
06:20 17.5 88.4 0.0 NNE 0.0 NE 0.0
06:25 17.5 88.9 0.0 NNE 0.0 NE 0.0
06:30 17.4 89.4 0.0 NNE 0.0 NE 0.0
06:35 17.6 88.8 0.0 NNE 0.0 NE 0.0
06:40 17.8 88.2 0.1 NE 1.4 NE 0.0
06:45 18.0 88.4 0.0 NNE 0.0 NE 0.0
06:50 18.2 88.4 0.0 NNE 0.0 NE 0.0
06:55 18.5 87.7 0.0 NNE 0.0 NE 0.0
07:00 18.8 86.9 0.0 NNE 0.0 NE 0.0
07:05 19.1 86.1 0.0 NNE 0.0 NE 0.0
07:10 19.3 85.0 0.0 NNE 0.0 NE 0.0
07:15 19.5 84.4 0.1 NE 1.4 NE 0.0
07:20 19.8 84.0 1.2 ENE 3.2 ENE 0.0
07:25 20.0 83.6 0.8 ENE 3.5 ENE 0.0
07:30 20.2 82.2 0.5 ENE 2.5 ENE 0.0
07:35 20.4 81.1 0.1 ENE 1.8 ENE 0.0
07:40 20.7 79.6 0.1 ENE 2.1 ENE 0.0
07:45 21.1 75.6 0.2 ENE 2.1 ENE 0.0
07:50 21.3 74.0 2.9 WNW 6.7 W 0.0
07:55 21.5 72.9 1.8 WSW 4.6 WSW 0.0
08:00 21.9 71.0 3.6 WSW 6.4 WSW 0.0
08:05 22.1 69.9 0.8 WSW 3.9 SW 0.0
08:10 22.5 68.6 0.6 WSW 3.9 W 0.0
08:15 22.8 67.8 2.8 W 5.3 WSW 0.0
08:20 23.2 65.9 1.8 S 4.6 SW 0.0
08:25 23.6 64.5 3.4 SW 7.1 SW 0.0
08:30 24.2 62.8 2.8 WSW 7.1 W 0.0
08:35 24.4 62.0 2.7 NW 5.6 NW 0.0
08:40 24.7 61.4 4.6 WNW 7.4 WSW 0.0
08:45 25.2 60.4 3.9 WSW 7.4 SW 0.0
08:50 25.6 58.6 3.0 SW 6.7 SSW 0.0
08:55 25.8 58.4 3.8 WSW 7.8 WSW 0.0
09:00 26.1 57.8 4.6 WSW 8.5 SW 0.0
09:05 26.8 55.2 2.5 SW 7.8 SW 0.0
09:10 27.0 53.7 4.4 SW 9.2 SSW 0.0
09:15 27.4 52.6 4.0 WSW 7.4 W 0.0
09:20 27.7 51.7 4.8 W 9.2 WSW 0.0
09:25 27.7 51.4 0.6 NNW 2.8 N 0.0
09:30 28.2 50.3 1.5 WSW 5.3 SW 0.0
09:35 28.4 49.4 2.7 SSW 6.7 SSW 0.0
09:40 28.8 48.3 2.1 WSW 5.6 SW 0.0
09:45 29.4 46.4 3.7 WSW 7.1 WSW 0.0
09:50 29.6 46.1 2.4 W 4.9 WNW 0.0
09:55 30.0 44.8 3.5 WNW 7.1 WSW 0.0
10:00 30.3 43.4 2.9 WSW 6.7 SW 0.0
10:05 31.1 41.1 1.0 SSW 6.0 SSW 0.0
10:10 31.8 36.8 2.9 SE 6.4 SE 0.0
10:15 32.4 36.0 1.8 E 5.6 ESE 0.0
10:20 32.5 35.0 1.7 ENE 5.3 NE 0.0
10:25 32.7 33.6 1.9 N 4.2 NNE 0.0
10:30 33.2 32.4 2.8 W 7.1 WSW 0.0
10:35 33.0 31.7 3.4 WNW 8.5 SW 0.0
10:40 33.0 31.6 1.7 N 7.4 SW 0.0
10:45 33.8 30.4 1.8 W 5.3 W 0.0
10:50 34.3 30.0 2.1 WNW 5.3 NNW 0.0
10:55 34.5 28.9 3.1 W 7.8 WNW 0.0
11:00 34.5 27.9 1.5 NW 4.2 NNW 0.0
11:05 35.1 26.6 3.5 SW 9.9 S 0.0
11:10 35.5 25.6 4.1 SE 7.8 SE 0.0
11:15 35.5 25.5 5.7 ESE 11.3 SSW 0.0
11:20 35.8 23.7 4.2 SSW 10.6 S 0.0
Máxima 35.8 90.7 5.7 ESE 11.3 SSW 0.0
Mínima 16.6 23.7
Total 0.0